• Join FlightAware (Why Join?)
  • Login
  • US Flag 
12:33PM EST


 

Airport Tracker/Info


-or-


 

Live Flight TrackerFlight Track Log ✈ CSN3949 ✈ 15-Jan-2014 ✈ ZUCK / CKG - ZUJZ / JZH

Flight Track Log - Related Links

Times and Time Zones

All times are in EST time to prevent confusion due to time zone crossing. See the CSN3949 flight status page for this flight to view local times or setup timezone preferences in your user account.

Time Position Orientation Groundspeed Altitude Reporting Facility
EST Latitude Longitude Course Direction KTS MPH feet Rate Location/Type
10:01PM 29.7771 106.5889 322° Northwest  Level Estimated
10:02PM 29.8348 106.5367 322° Northwest  Level Estimated
10:03PM 29.8924 106.4844 322° Northwest  Level Estimated
10:04PM 29.9471 106.4348 322° Northwest  Level Estimated
10:05PM 30.0017 106.3852 322° Northwest  Level Estimated
10:06PM 30.0564 106.3354 322° Northwest  Level Estimated
10:07PM 30.1110 106.2857 322° Northwest  Level Estimated
10:08PM 30.1656 106.2358 322° Northwest  Level Estimated
10:09PM 30.2201 106.1860 322° Northwest  Level Estimated
10:10PM 30.2747 106.1360 322° Northwest  Level Estimated
10:11PM 30.3292 106.0860 322° Northwest  Level Estimated
10:12PM 30.3837 106.0360 322° Northwest  Level Estimated
10:13PM 30.4382 105.9859 322° Northwest  Level Estimated
10:14PM 30.4927 105.9357 322° Northwest  Level Estimated
10:15PM 30.5471 105.8855 322° Northwest  Level Estimated
10:16PM 30.6016 105.8352 322° Northwest  Level Estimated
10:17PM 30.6560 105.7849 321° Northwest  Level Estimated
10:18PM 30.7104 105.7345 321° Northwest  Level Estimated
10:19PM 30.7648 105.6841 321° Northwest  Level Estimated
10:20PM 30.8191 105.6336 321° Northwest  Level Estimated
10:21PM 30.8735 105.5830 321° Northwest  Level Estimated
10:22PM 30.9278 105.5324 321° Northwest  Level Estimated
10:23PM 30.9821 105.4817 321° Northwest  Level Estimated
10:24PM 31.0364 105.4310 321° Northwest  Level Estimated
10:25PM 31.0906 105.3802 321° Northwest  Level Estimated
10:26PM 31.1449 105.3294 321° Northwest  Level Estimated
10:27PM 31.1991 105.2785 321° Northwest  Level Estimated
10:28PM 31.2533 105.2275 321° Northwest  Level Estimated
10:29PM 31.3075 105.1765 321° Northwest  Level Estimated
10:30PM 31.3616 105.1254 321° Northwest  Level Estimated
10:31PM 31.4158 105.0742 321° Northwest  Level Estimated
10:32PM 31.4699 105.0230 321° Northwest  Level Estimated
10:33PM 31.5240 104.9718 321° Northwest  Level Estimated
10:34PM 31.5781 104.9205 321° Northwest  Level Estimated
10:35PM 31.6321 104.8691 321° Northwest  Level Estimated
10:36PM 31.6862 104.8176 321° Northwest  Level Estimated
10:37PM 31.7402 104.7662 321° Northwest  Level Estimated
10:38PM 31.7942 104.7146 321° Northwest  Level Estimated
10:39PM 31.8481 104.6630 321° Northwest  Level Estimated
10:40PM 31.9021 104.6113 321° Northwest  Level Estimated
10:41PM 31.9560 104.5595 321° Northwest  Level Estimated
10:42PM 32.0099 104.5078 321° Northwest  Level Estimated
10:43PM 32.0638 104.4559 321° Northwest  Level Estimated
10:44PM 32.1177 104.4040 321° Northwest  Level Estimated
10:45PM 32.1715 104.3520 321° Northwest  Level Estimated
10:46PM 32.2254 104.2999 321° Northwest  Level Estimated
10:47PM 32.2792 104.2478 321° Northwest  Level Estimated
10:48PM 32.3330 104.1957 321° Northwest  Level Estimated
10:49PM 32.3867 104.1434 321° Northwest  Level Estimated
10:50PM 32.4404 104.0912 321° Northwest  Level Estimated
10:51PM 32.4942 104.0388 321° Northwest  Level Estimated
10:52PM 32.5479 103.9864 321° Northwest  Level Estimated
10:53PM 32.6016 103.9339 321° Northwest  Level Estimated
10:54PM 32.6552 103.8814 321° Northwest  Level Estimated
10:55PM 32.7088 103.8288 320° Northwest  Level Estimated
10:56PM 32.7624 103.7761 320° Northwest  Level Estimated
10:57PM 32.8160 103.7234 320° Northwest  Level Estimated
10:58PM 32.8570 103.6830 320° Northwest  Level Estimated
10:59PM 32.8570 103.6830 North  Level Estimated
11:00PM 32.8570 103.6830 North  Level Estimated
11:01PM 32.8570 103.6830 North  Level Estimated
11:02PM 32.8570 103.6830 North  Level Estimated
11:03PM 32.8570 103.6830 North  Level Estimated
11:04PM 32.8570 103.6830 North  Level Estimated
11:05PM 32.8570 103.6830 North  Level Estimated
11:06PM 32.8570 103.6830 North  Level Estimated
11:07PM 32.8570 103.6830 North  Level Estimated
11:08PM 32.8570 103.6830 North  Level Estimated
11:09PM 32.8570 103.6830 North  Level Estimated
11:10PM 32.8570 103.6830 North  Level Estimated
11:11PM 32.8570 103.6830 North  Level Estimated
11:12PM 32.8570 103.6830 North  Level Estimated
11:13PM 32.8570 103.6830 North  Level Estimated